Time;durP1;ratioP1;P1;durP2;ratioP2;P2;SDS_P1;SDS_P2;PMS_P1;PMS_P2;Temp;Humidity;BMP_temperature;BMP_pressure;BME280_temperature;BME280_humidity;BME280_pressure;Samples;Min_cycle;Max_cycle;Signal;HPM_P1;HPM_P2
2022/09/17 00:00:19;;;;;;;;;;;;;;;26.95;nan;100511.38;5053903;28;1213;-33
2022/09/17 00:02:51;;;;;;;;;;;;;;;26.95;nan;100508.72;5054240;28;1028;-30
2022/09/17 00:05:18;;;;;;;;;;;;;;;26.95;nan;100503.38;5053816;28;1383;-33
2022/09/17 00:07:44;;;;;;;;;;;;;;;26.94;nan;100512.38;5053820;28;1918;-33
2022/09/17 00:10:11;;;;;;;;;;;;;;;26.94;nan;100513.22;5053742;28;1209;-29
2022/09/17 00:12:38;;;;;;;;;;;;;;;26.94;nan;100512.38;5053420;28;870;-35
2022/09/17 00:15:05;;;;;;;;;;;;;;;26.94;nan;100515.03;5053588;28;1224;-29
2022/09/17 00:17:32;;;;;;;;;;;;;;;26.94;nan;100509.69;5053818;28;1033;-34
2022/09/17 00:19:58;;;;;;;;;;;;;;;26.93;nan;100505.34;5053479;28;1298;-34
2022/09/17 00:22:25;;;;;;;;;;;;;;;26.94;nan;100499.00;5053924;28;1043;-33
2022/09/17 00:24:52;;;;;;;;;;;;;;;26.92;nan;100503.66;5053497;28;1224;-30
2022/09/17 00:27:18;;;;;;;;;;;;;;;26.92;nan;100501.00;5053223;28;1040;-36
2022/09/17 00:29:46;;;;;;;;;;;;;;;26.92;nan;100501.84;5053129;28;2249;-34
2022/09/17 00:32:13;;;;;;;;;;;;;;;26.92;nan;100495.66;5053551;28;1514;-32
2022/09/17 00:34:41;;;;;;;;;;;;;;;26.93;nan;100497.34;5053200;28;1251;-34
2022/09/17 00:37:08;;;;;;;;;;;;;;;26.92;nan;100490.31;5067836;28;1049;-33
2022/09/17 00:39:35;;;;;;;;;;;;;;;26.91;nan;100484.09;5053122;28;1295;-35
2022/09/17 00:42:04;;;;;;;;;;;;;;;26.92;nan;100484.94;5053469;28;1088;-35
2022/09/17 00:44:50;;;;;;;;;;;;;;;26.92;nan;100482.28;5053194;28;1228;-35
2022/09/17 00:47:29;;;;;;;;;;;;;;;26.91;nan;100478.75;5053309;28;1103;-32
2022/09/17 00:49:59;;;;;;;;;;;;;;;26.90;nan;100481.59;5084899;28;1989;-30
2022/09/17 00:52:34;;;;;;;;;;;;;;;26.89;nan;100469.22;5053066;28;1057;-34
2022/09/17 00:55:16;;;;;;;;;;;;;;;26.90;nan;100470.91;5053151;28;1189;-31
2022/09/17 00:57:44;;;;;;;;;;;;;;;26.89;nan;100464.72;5052870;28;1004;-30
2022/09/17 01:00:14;;;;;;;;;;;;;;;26.89;nan;100458.53;5052781;28;1212;-33
2022/09/17 01:02:41;;;;;;;;;;;;;;;26.89;nan;100463.88;5053403;28;1034;-35
2022/09/17 01:05:09;;;;;;;;;;;;;;;26.89;nan;100453.19;5052874;28;1295;-32
2022/09/17 01:07:39;;;;;;;;;;;;;;;26.88;nan;100454.16;5052922;28;918;-32
2022/09/17 01:10:12;;;;;;;;;;;;;;;26.88;nan;100451.47;5052498;28;1906;-34
2022/09/17 01:12:46;;;;;;;;;;;;;;;26.86;nan;100459.66;5053004;28;1031;-34
2022/09/17 01:15:22;;;;;;;;;;;;;;;26.86;nan;100459.66;5052789;28;1204;-34
2022/09/17 01:17:49;;;;;;;;;;;;;;;26.86;nan;100453.47;5053111;28;1019;-33
2022/09/17 01:20:35;;;;;;;;;;;;;;;26.85;nan;100447.28;5053208;28;1221;-35
2022/09/17 01:23:17;;;;;;;;;;;;;;;26.85;nan;100446.44;5052542;28;1093;-33
2022/09/17 01:25:50;;;;;;;;;;;;;;;26.85;nan;100446.44;5052807;28;1142;-33
2022/09/17 01:28:20;;;;;;;;;;;;;;;26.85;nan;100457.13;5052383;28;1998;-35
2022/09/17 01:31:00;;;;;;;;;;;;;;;26.84;nan;100453.59;5052438;28;1295;-34
2022/09/17 01:33:27;;;;;;;;;;;;;;;26.84;nan;100460.81;5053136;28;1142;-34
2022/09/17 01:35:54;;;;;;;;;;;;;;;26.84;nan;100458.13;5052856;28;1201;-30
2022/09/17 01:38:23;;;;;;;;;;;;;;;26.84;nan;100458.13;5054254;28;906;-33
2022/09/17 01:40:59;;;;;;;;;;;;;;;26.83;nan;100461.78;5056740;28;1229;-31
2022/09/17 01:43:31;;;;;;;;;;;;;;;26.83;nan;100462.63;5089027;28;1153;-33
2022/09/17 01:46:02;;;;;;;;;;;;;;;26.82;nan;100460.09;5057012;28;1395;-36
2022/09/17 01:48:32;;;;;;;;;;;;;;;26.83;nan;100464.44;5056462;28;1913;-34
2022/09/17 01:51:06;;;;;;;;;;;;;;;26.82;nan;100457.41;5056712;28;1260;-34
2022/09/17 01:53:56;;;;;;;;;;;;;;;26.82;nan;100462.75;5057039;28;1260;-33
2022/09/17 01:56:26;;;;;;;;;;;;;;;26.81;nan;100458.41;5056521;28;1240;-35
2022/09/17 01:58:56;;;;;;;;;;;;;;;26.81;nan;100461.09;5056499;28;813;-31
2022/09/17 02:01:24;;;;;;;;;;;;;;;26.81;nan;100455.75;5056530;28;1253;-36
2022/09/17 02:04:03;;;;;;;;;;;;;;;26.80;nan;100456.72;5056330;28;746;-30
2022/09/17 02:06:33;;;;;;;;;;;;;;;26.80;nan;100456.72;5056474;28;1312;-33
2022/09/17 02:09:02;;;;;;;;;;;;;;;26.79;nan;100461.19;5056429;28;1914;-35
2022/09/17 02:11:32;;;;;;;;;;;;;;;26.78;nan;100456.00;5056506;28;1496;-35
2022/09/17 02:14:02;;;;;;;;;;;;;;;26.77;nan;100457.84;5056184;28;805;-33
2022/09/17 02:16:31;;;;;;;;;;;;;;;26.76;nan;100453.47;5056418;28;1343;-34
2022/09/17 02:19:17;;;;;;;;;;;;;;;26.77;nan;100459.66;5056088;28;858;-33
2022/09/17 02:21:49;;;;;;;;;;;;;;;26.76;nan;100453.47;5056429;28;1300;-34
2022/09/17 02:24:22;;;;;;;;;;;;;;;26.76;nan;100453.47;5056222;28;890;-32
2022/09/17 02:26:54;;;;;;;;;;;;;;;26.75;nan;100454.44;5055725;28;1112;-34
2022/09/17 02:29:34;;;;;;;;;;;;;;;26.75;nan;100456.31;5055775;28;1975;-34
2022/09/17 02:32:01;;;;;;;;;;;;;;;26.76;nan;100460.63;5055880;28;969;-32
2022/09/17 02:34:28;;;;;;;;;;;;;;;26.75;nan;100458.97;5055956;28;1225;-32
2022/09/17 02:36:58;;;;;;;;;;;;;;;26.74;nan;100451.94;5055574;28;930;-35
2022/09/17 02:39:25;;;;;;;;;;;;;;;26.74;nan;100452.78;5055120;28;1302;-35
2022/09/17 02:41:57;;;;;;;;;;;;;;;26.73;nan;100453.75;5055562;28;1009;-37
2022/09/17 02:44:30;;;;;;;;;;;;;;;26.73;nan;100467.13;5055680;28;1351;-33
2022/09/17 02:47:16;;;;;;;;;;;;;;;26.73;nan;100463.59;5055484;28;1029;-33
2022/09/17 02:49:53;;;;;;;;;;;;;;;26.73;nan;100463.59;5054818;28;1910;-33
2022/09/17 02:52:21;;;;;;;;;;;;;;;26.73;nan;100464.44;5055828;28;1100;-33
2022/09/17 02:54:57;;;;;;;;;;;;;;;26.73;nan;100455.59;5055384;28;1208;-35
2022/09/17 02:57:36;;;;;;;;;;;;;;;26.72;nan;100457.41;5055741;28;1450;-35
2022/09/17 03:00:13;;;;;;;;;;;;;;;26.73;nan;100451.09;5055115;28;1221;-34
2022/09/17 03:02:42;;;;;;;;;;;;;;;26.70;nan;100453.19;5055425;28;1121;-32
2022/09/17 03:05:09;;;;;;;;;;;;;;;26.70;nan;100450.53;5055345;28;1303;-34
2022/09/17 03:07:36;;;;;;;;;;;;;;;26.68;nan;100453.38;5055414;28;942;-35
2022/09/17 03:10:03;;;;;;;;;;;;;;;26.68;nan;100453.38;5055265;28;1980;-32
2022/09/17 03:12:30;;;;;;;;;;;;;;;26.68;nan;100450.69;5055430;28;1124;-34
2022/09/17 03:14:57;;;;;;;;;;;;;;;26.66;nan;100449.97;5055046;28;1215;-33
2022/09/17 03:17:23;;;;;;;;;;;;;;;26.66;nan;100451.84;5055165;28;1016;-35
2022/09/17 03:19:50;;;;;;;;;;;;;;;26.63;nan;100451.13;5054931;28;1289;-35
2022/09/17 03:22:17;;;;;;;;;;;;;;;26.65;nan;100450.13;5055116;28;1065;-35
2022/09/17 03:24:44;;;;;;;;;;;;;;;26.63;nan;100454.78;5054812;28;1221;-32
2022/09/17 03:27:11;;;;;;;;;;;;;;;26.61;nan;100449.59;5055184;28;1042;-33
2022/09/17 03:29:37;;;;;;;;;;;;;;;26.60;nan;100459.41;5055028;28;1910;-34
2022/09/17 03:32:04;;;;;;;;;;;;;;;26.60;nan;100456.75;5055093;28;1105;-31
2022/09/17 03:34:31;;;;;;;;;;;;;;;26.61;nan;100454.91;5054854;28;1232;-35
2022/09/17 03:36:57;;;;;;;;;;;;;;;26.61;nan;100453.09;5054783;28;906;-36
2022/09/17 03:39:24;;;;;;;;;;;;;;;26.60;nan;100459.41;5053922;28;1223;-32
2022/09/17 03:41:51;;;;;;;;;;;;;;;26.59;nan;100456.91;5054925;28;923;-34
2022/09/17 03:44:18;;;;;;;;;;;;;;;26.59;nan;100457.75;5054576;28;749;-34
2022/09/17 03:46:45;;;;;;;;;;;;;;;26.58;nan;100460.56;5069881;28;1359;-34
2022/09/17 03:49:11;;;;;;;;;;;;;;;26.59;nan;100462.25;5054469;28;1993;-34
2022/09/17 03:51:38;;;;;;;;;;;;;;;26.56;nan;100463.38;5054304;28;1195;-35
2022/09/17 03:54:05;;;;;;;;;;;;;;;26.55;nan;100456.34;5054284;28;1204;-35
2022/09/17 03:56:32;;;;;;;;;;;;;;;26.55;nan;100451.00;5054418;28;1193;-33
2022/09/17 03:58:59;;;;;;;;;;;;;;;26.55;nan;100455.50;5054172;28;748;-32
2022/09/17 04:01:27;;;;;;;;;;;;;;;26.55;nan;100459.03;5053417;28;1197;-32
2022/09/17 04:03:53;;;;;;;;;;;;;;;26.54;nan;100459.16;5054007;28;836;-35
2022/09/17 04:06:20;;;;;;;;;;;;;;;26.53;nan;100455.66;5053935;28;1365;-35
2022/09/17 04:08:47;;;;;;;;;;;;;;;26.52;nan;100453.97;5053968;28;1910;-32
2022/09/17 04:11:14;;;;;;;;;;;;;;;26.51;nan;100454.94;5054140;28;1201;-33
2022/09/17 04:13:40;;;;;;;;;;;;;;;26.52;nan;100461.97;5054375;28;1022;-30
2022/09/17 04:16:07;;;;;;;;;;;;;;;26.51;nan;100462.94;5053899;28;1296;-32
2022/09/17 04:18:34;;;;;;;;;;;;;;;26.51;nan;100465.63;5054320;28;1273;-31
2022/09/17 04:21:00;;;;;;;;;;;;;;;26.50;nan;100466.63;5053940;28;1199;-32
2022/09/17 04:23:27;;;;;;;;;;;;;;;26.51;nan;100468.28;5054028;28;1140;-34
2022/09/17 04:25:54;;;;;;;;;;;;;;;26.51;nan;100473.63;5053693;28;1207;-34
2022/09/17 04:28:20;;;;;;;;;;;;;;;26.51;nan;100478.13;5054074;28;1148;-31
2022/09/17 04:30:47;;;;;;;;;;;;;;;26.49;nan;100470.28;5053311;28;1917;-35
2022/09/17 04:33:14;;;;;;;;;;;;;;;26.49;nan;100478.28;5053997;28;1003;-33
2022/09/17 04:35:42;;;;;;;;;;;;;;;26.49;nan;100472.94;5053343;28;1253;-35
2022/09/17 04:38:09;;;;;;;;;;;;;;;26.50;nan;100479.13;5052579;28;1602;-34
2022/09/17 04:40:35;;;;;;;;;;;;;;;26.49;nan;100480.97;5053458;28;1174;-35
2022/09/17 04:43:03;;;;;;;;;;;;;;;26.48;nan;100486.44;5053752;28;1030;-34
2022/09/17 04:45:32;;;;;;;;;;;;;;;26.49;nan;100482.78;5053334;28;1284;-34
2022/09/17 04:47:59;;;;;;;;;;;;;;;26.50;nan;100495.16;5053719;28;1604;-32
2022/09/17 04:50:25;;;;;;;;;;;;;;;26.48;nan;100497.13;5052987;28;1977;-30
2022/09/17 04:52:52;;;;;;;;;;;;;;;26.46;nan;100501.78;5053561;28;1027;-35
2022/09/17 04:55:19;;;;;;;;;;;;;;;26.46;nan;100499.94;5053254;28;1202;-36
2022/09/17 04:57:47;;;;;;;;;;;;;;;26.45;nan;100503.59;5053584;28;1047;-33
2022/09/17 05:00:14;;;;;;;;;;;;;;;26.46;nan;100499.09;5052943;28;1203;-36
2022/09/17 05:02:44;;;;;;;;;;;;;;;26.45;nan;100508.94;5053267;28;1098;-34
2022/09/17 05:05:10;;;;;;;;;;;;;;;26.44;nan;100506.41;5052959;28;1181;-30
2022/09/17 05:07:38;;;;;;;;;;;;;;;26.44;nan;100512.59;5053035;28;1091;-33
2022/09/17 05:10:05;;;;;;;;;;;;;;;26.44;nan;100504.59;5052827;28;1918;-32
2022/09/17 05:12:32;;;;;;;;;;;;;;;26.45;nan;100511.59;5053139;28;997;-35
2022/09/17 05:15:00;;;;;;;;;;;;;;;26.43;nan;100516.25;5053288;28;1212;-35
2022/09/17 05:17:26;;;;;;;;;;;;;;;26.43;nan;100513.59;5053197;28;1049;-33
2022/09/17 05:19:53;;;;;;;;;;;;;;;26.43;nan;100513.59;5052943;28;1209;-35
2022/09/17 05:22:20;;;;;;;;;;;;;;;26.43;nan;100513.59;5052826;28;1123;-34
2022/09/17 05:24:47;;;;;;;;;;;;;;;26.43;nan;100518.06;5052984;28;1178;-36
2022/09/17 05:27:14;;;;;;;;;;;;;;;26.42;nan;100522.56;5052707;28;1029;-32
2022/09/17 05:29:40;;;;;;;;;;;;;;;26.43;nan;100534.09;5052643;28;1910;-30
2022/09/17 05:32:07;;;;;;;;;;;;;;;26.42;nan;100541.25;5052703;28;1249;-34
2022/09/17 05:34:34;;;;;;;;;;;;;;;26.41;nan;100536.94;5052823;28;1292;-34
2022/09/17 05:37:01;;;;;;;;;;;;;;;26.39;nan;100546.88;5052923;28;1036;-35
2022/09/17 05:39:27;;;;;;;;;;;;;;;26.39;nan;100546.88;5052886;28;1221;-34
2022/09/17 05:41:54;;;;;;;;;;;;;;;26.39;nan;100546.03;5052607;28;900;-35
2022/09/17 05:44:22;;;;;;;;;;;;;;;26.39;nan;100552.22;5067943;28;1229;-36
2022/09/17 05:46:51;;;;;;;;;;;;;;;26.41;nan;100550.28;5052511;28;1082;-35
2022/09/17 05:49:18;;;;;;;;;;;;;;;26.38;nan;100558.56;5052449;28;1981;-34
2022/09/17 05:51:45;;;;;;;;;;;;;;;26.38;nan;100555.91;5052422;28;1594;-34
2022/09/17 05:54:12;;;;;;;;;;;;;;;26.39;nan;100560.25;5052615;28;902;-27
2022/09/17 05:56:38;;;;;;;;;;;;;;;26.38;nan;100561.25;5052601;28;1252;-35
2022/09/17 05:59:05;;;;;;;;;;;;;;;26.38;nan;100561.25;5052643;28;759;-34
2022/09/17 06:01:31;;;;;;;;;;;;;;;26.38;nan;100569.25;5052280;28;1209;-35
2022/09/17 06:04:01;;;;;;;;;;;;;;;26.37;nan;100561.38;5052505;28;714;-32
2022/09/17 06:06:29;;;;;;;;;;;;;;;26.38;nan;100566.59;5083574;28;1209;-33
2022/09/17 06:08:59;;;;;;;;;;;;;;;26.36;nan;100573.03;5052450;28;812;-34
2022/09/17 06:11:27;;;;;;;;;;;;;;;26.35;nan;100577.56;5052121;28;1981;-33
2022/09/17 06:13:54;;;;;;;;;;;;;;;26.36;nan;100578.38;5051519;28;730;-34
2022/09/17 06:16:22;;;;;;;;;;;;;;;26.34;nan;100573.19;5052390;28;1279;-31
2022/09/17 06:18:49;;;;;;;;;;;;;;;26.36;nan;100578.38;5052406;28;986;-35
2022/09/17 06:21:16;;;;;;;;;;;;;;;26.34;nan;100569.66;5052342;28;1213;-35
2022/09/17 06:23:43;;;;;;;;;;;;;;;26.35;nan;100580.22;5052894;28;735;-34
2022/09/17 06:26:10;;;;;;;;;;;;;;;26.34;nan;100575.84;5055807;28;1213;-32
2022/09/17 06:28:37;;;;;;;;;;;;;;;26.34;nan;100580.34;5056177;28;1179;-34
2022/09/17 06:31:08;;;;;;;;;;;;;;;26.34;nan;100573.19;5056162;28;1985;-33
2022/09/17 06:33:35;;;;;;;;;;;;;;;26.34;nan;100575.84;5056506;28;1184;-36
2022/09/17 06:36:03;;;;;;;;;;;;;;;26.34;nan;100581.19;5055695;28;1205;-33
2022/09/17 06:38:35;;;;;;;;;;;;;;;26.35;nan;100585.56;5055843;28;1612;-35
2022/09/17 06:41:02;;;;;;;;;;;;;;;26.34;nan;100591.88;5055624;28;1201;-32
2022/09/17 06:43:29;;;;;;;;;;;;;;;26.34;nan;100597.22;5056010;28;1133;-32
2022/09/17 06:46:00;;;;;;;;;;;;;;;26.34;nan;100591.88;5055312;28;1228;-34
2022/09/17 06:48:27;;;;;;;;;;;;;;;26.33;nan;100592.00;5055779;28;1464;-34
2022/09/17 06:50:54;;;;;;;;;;;;;;;26.33;nan;100594.66;5055700;28;1985;-32
2022/09/17 06:53:21;;;;;;;;;;;;;;;26.33;nan;100595.53;5055854;28;1138;-34
2022/09/17 06:55:48;;;;;;;;;;;;;;;26.33;nan;100603.53;5055362;28;1220;-35
2022/09/17 06:58:15;;;;;;;;;;;;;;;26.33;nan;100595.53;5055623;28;919;-32
2022/09/17 07:00:42;;;;;;;;;;;;;;;26.34;nan;100601.72;5055204;28;1205;-30
2022/09/17 07:03:09;;;;;;;;;;;;;;;26.32;nan;100604.53;5055205;28;1055;-33
2022/09/17 07:05:35;;;;;;;;;;;;;;;26.33;nan;100611.53;5054662;28;1313;-30
2022/09/17 07:08:03;;;;;;;;;;;;;;;26.32;nan;100619.72;5055257;28;1031;-33
2022/09/17 07:10:29;;;;;;;;;;;;;;;26.33;nan;100622.22;5055253;28;1909;-34
2022/09/17 07:12:56;;;;;;;;;;;;;;;26.31;nan;100629.53;5055403;28;1043;-31
2022/09/17 07:15:23;;;;;;;;;;;;;;;26.32;nan;100631.25;5055281;28;1240;-30
2022/09/17 07:17:50;;;;;;;;;;;;;;;26.31;nan;100634.88;5070378;28;1274;-32
2022/09/17 07:20:17;;;;;;;;;;;;;;;26.32;nan;100647.25;5055280;28;1467;-33
2022/09/17 07:22:43;;;;;;;;;;;;;;;26.32;nan;100641.91;5055237;28;1049;-33
2022/09/17 07:25:10;;;;;;;;;;;;;;;26.32;nan;100654.41;5054716;28;1303;-33
2022/09/17 07:27:37;;;;;;;;;;;;;;;26.32;nan;100657.94;5055145;28;979;-35
2022/09/17 07:30:04;;;;;;;;;;;;;;;26.32;nan;100657.94;5054614;28;1910;-33
2022/09/17 07:32:31;;;;;;;;;;;;;;;26.32;nan;100659.75;5054909;28;1034;-33
2022/09/17 07:34:57;;;;;;;;;;;;;;;26.34;nan;100672.00;5053848;28;1182;-35
2022/09/17 07:37:24;;;;;;;;;;;;;;;26.33;nan;100667.63;5054020;28;1120;-35
2022/09/17 07:39:51;;;;;;;;;;;;;;;26.32;nan;100673.13;5054197;28;1197;-36
2022/09/17 07:42:18;;;;;;;;;;;;;;;26.32;nan;100671.28;5054840;28;912;-33
2022/09/17 07:44:45;;;;;;;;;;;;;;;26.31;nan;100676.75;5053973;28;1213;-35
2022/09/17 07:47:12;;;;;;;;;;;;;;;26.30;nan;100672.38;5054255;28;1471;-32
2022/09/17 07:49:39;;;;;;;;;;;;;;;26.30;nan;100669.72;5054221;28;1638;-34
2022/09/17 07:52:05;;;;;;;;;;;;;;;26.29;nan;100668.91;5053999;28;1914;-32
2022/09/17 07:54:32;;;;;;;;;;;;;;;26.30;nan;100683.06;5053890;28;1590;-35
2022/09/17 07:56:59;;;;;;;;;;;;;;;26.30;nan;100686.59;5054383;28;1122;-33
2022/09/17 07:59:26;;;;;;;;;;;;;;;26.29;nan;100687.59;5054226;28;1232;-31
2022/09/17 08:01:54;;;;;;;;;;;;;;;26.28;nan;100693.06;5054455;28;1142;-34
2022/09/17 08:04:21;;;;;;;;;;;;;;;26.29;nan;100694.75;5053925;28;1205;-32
2022/09/17 08:06:48;;;;;;;;;;;;;;;26.28;nan;100699.25;5053423;28;1018;-34
2022/09/17 08:09:15;;;;;;;;;;;;;;;26.26;nan;100698.53;5053974;28;836;-34
2022/09/17 08:11:42;;;;;;;;;;;;;;;26.27;nan;100696.69;5053719;28;1983;-33
2022/09/17 08:14:24;;;;;;;;;;;;;;;26.27;nan;100705.56;5054178;28;1316;-36
2022/09/17 08:16:54;;;;;;;;;;;;;;;26.27;nan;100716.22;5053833;28;1016;-35
2022/09/17 08:19:21;;;;;;;;;;;;;;;26.28;nan;100715.25;5053764;28;1264;-35
2022/09/17 08:21:48;;;;;;;;;;;;;;;26.28;nan;100709.06;5053399;28;1038;-35
2022/09/17 08:24:14;;;;;;;;;;;;;;;26.28;nan;100709.91;5053434;28;930;-36
2022/09/17 08:26:41;;;;;;;;;;;;;;;26.27;nan;100705.56;5053412;28;1254;-32
2022/09/17 08:29:09;;;;;;;;;;;;;;;26.27;nan;100704.69;5053666;28;1094;-32
2022/09/17 08:31:36;;;;;;;;;;;;;;;26.27;nan;100710.91;5053590;28;1914;-35
2022/09/17 08:34:06;;;;;;;;;;;;;;;26.27;nan;100718.91;5053393;28;856;-34
2022/09/17 08:36:33;;;;;;;;;;;;;;;26.29;nan;100721.44;5053290;28;1332;-36
2022/09/17 08:39:00;;;;;;;;;;;;;;;26.30;nan;100728.47;5053384;28;906;-36
2022/09/17 08:41:38;;;;;;;;;;;;;;;26.30;nan;100728.47;5053016;28;1189;-35
2022/09/17 08:44:19;;;;;;;;;;;;;;;26.31;nan;100725.66;5053291;28;1153;-33
2022/09/17 08:46:47;;;;;;;;;;;;;;;26.33;nan;100733.53;5052898;28;1121;-32
2022/09/17 08:49:24;;;;;;;;;;;;;;;26.33;nan;100739.72;5052862;28;1100;-34
2022/09/17 08:52:05;;;;;;;;;;;;;;;26.32;nan;100731.84;5052996;28;1981;-34
2022/09/17 08:54:32;;;;;;;;;;;;;;;26.34;nan;100732.56;5052963;28;1611;-35
2022/09/17 08:57:22;;;;;;;;;;;;;;;26.32;nan;100732.72;5052999;28;1033;-33
2022/09/17 08:59:56;;;;;;;;;;;;;;;26.34;nan;100735.22;5054738;28;1731;-35
2022/09/17 09:02:31;;;;;;;;;;;;;;;26.33;nan;100734.38;5052952;28;1604;-33
2022/09/17 09:04:58;;;;;;;;;;;;;;;26.33;nan;100738.88;5052877;28;1228;-35
2022/09/17 09:07:30;;;;;;;;;;;;;;;26.33;nan;100738.88;5052811;28;1059;-34
2022/09/17 09:10:04;;;;;;;;;;;;;;;26.35;nan;100739.59;5052192;28;1321;-30
2022/09/17 09:12:34;;;;;;;;;;;;;;;26.33;nan;100739.72;5052897;28;1914;-35
2022/09/17 09:15:17;;;;;;;;;;;;;;;26.31;nan;100732.84;5052734;28;1157;-33
2022/09/17 09:17:45;;;;;;;;;;;;;;;26.31;nan;100741.69;5052933;28;1024;-34
2022/09/17 09:20:17;;;;;;;;;;;;;;;26.32;nan;100743.38;5052809;28;1276;-33
2022/09/17 09:22:47;;;;;;;;;;;;;;;26.32;nan;100735.38;5052740;28;1101;-35
2022/09/17 09:25:13;;;;;;;;;;;;;;;26.32;nan;100737.19;5052433;28;1209;-36
2022/09/17 09:27:46;;;;;;;;;;;;;;;26.33;nan;100742.38;5052798;28;917;-34
2022/09/17 09:30:14;;;;;;;;;;;;;;;26.35;nan;100742.28;5052628;28;1363;-34
2022/09/17 09:32:53;;;;;;;;;;;;;;;26.34;nan;100749.44;5084598;28;1100;-31
2022/09/17 09:35:21;;;;;;;;;;;;;;;26.36;nan;100741.25;5052791;28;1277;-33
2022/09/17 09:37:58;;;;;;;;;;;;;;;26.35;nan;100745.78;5052525;28;1048;-35
2022/09/17 09:40:24;;;;;;;;;;;;;;;26.34;nan;100741.41;5050883;28;1387;-32
2022/09/17 09:42:54;;;;;;;;;;;;;;;26.36;nan;100747.47;5052658;28;1471;-29
2022/09/17 09:45:41;;;;;;;;;;;;;;;26.37;nan;100749.16;5052223;28;1224;-34
2022/09/17 09:48:26;;;;;;;;;;;;;;;26.37;nan;100757.16;5052227;28;2290;-30
2022/09/17 09:51:08;;;;;;;;;;;;;;;26.36;nan;100752.81;5051762;28;1983;-35
2022/09/17 09:53:55;;;;;;;;;;;;;;;26.37;nan;100757.16;5053009;28;1187;-36
2022/09/17 09:56:40;;;;;;;;;;;;;;;26.37;nan;100749.16;5052505;28;1268;-34
2022/09/17 09:59:07;;;;;;;;;;;;;;;26.35;nan;100743.13;5053709;28;767;-33
2022/09/17 10:01:38;;;;;;;;;;;;;;;26.35;nan;100745.78;5056490;28;1300;-33
2022/09/17 10:04:14;;;;;;;;;;;;;;;26.35;nan;100745.78;5056107;28;934;-34
2022/09/17 10:06:41;;;;;;;;;;;;;;;26.38;nan;100742.00;5056087;28;1316;-33
2022/09/17 10:09:08;;;;;;;;;;;;;;;26.39;nan;100739.19;5056484;28;1109;-34
2022/09/17 10:11:36;;;;;;;;;;;;;;;26.39;nan;100744.50;5055871;28;1914;-34
2022/09/17 10:14:18;;;;;;;;;;;;;;;26.39;nan;100738.31;5055847;28;969;-31
2022/09/17 10:16:45;;;;;;;;;;;;;;;26.38;nan;100733.97;5055791;28;1308;-35
2022/09/17 10:19:17;;;;;;;;;;;;;;;26.37;nan;100734.97;5056177;28;763;-35
2022/09/17 10:21:44;;;;;;;;;;;;;;;26.37;nan;100741.16;5056145;28;1359;-35
2022/09/17 10:24:28;;;;;;;;;;;;;;;26.37;nan;100743.81;5055821;28;760;-33
2022/09/17 10:27:06;;;;;;;;;;;;;;;26.37;nan;100746.50;5056093;28;1100;-35
2022/09/17 10:29:33;;;;;;;;;;;;;;;26.37;nan;100741.16;5055810;28;1249;-33
2022/09/17 10:32:01;;;;;;;;;;;;;;;26.37;nan;100738.47;5055541;28;1910;-33
2022/09/17 10:34:29;;;;;;;;;;;;;;;26.38;nan;100742.84;5055994;28;1165;-35
2022/09/17 10:36:57;;;;;;;;;;;;;;;26.40;nan;100745.38;5055632;28;893;-36
2022/09/17 10:39:23;;;;;;;;;;;;;;;26.38;nan;100742.84;5056017;28;1243;-35
2022/09/17 10:42:01;;;;;;;;;;;;;;;26.38;nan;100734.84;5055643;28;1028;-36
2022/09/17 10:44:29;;;;;;;;;;;;;;;26.37;nan;100735.81;5054549;28;1205;-32
2022/09/17 10:47:04;;;;;;;;;;;;;;;26.38;nan;100737.50;5055734;28;1001;-35
2022/09/17 10:49:30;;;;;;;;;;;;;;;26.38;nan;100732.16;5055336;28;1363;-35
2022/09/17 10:52:04;;;;;;;;;;;;;;;26.39;nan;100731.16;5055299;28;1921;-33
2022/09/17 10:54:40;;;;;;;;;;;;;;;26.39;nan;100725.81;5055183;28;1284;-32
2022/09/17 10:57:09;;;;;;;;;;;;;;;26.39;nan;100731.16;5055095;28;1047;-34
2022/09/17 10:59:42;;;;;;;;;;;;;;;26.42;nan;100733.56;5070162;28;1181;-31
2022/09/17 11:02:08;;;;;;;;;;;;;;;26.43;nan;100723.72;5055453;28;1177;-33
2022/09/17 11:04:41;;;;;;;;;;;;;;;26.44;nan;100722.75;5055379;28;1315;-33
2022/09/17 11:07:11;;;;;;;;;;;;;;;26.44;nan;100726.28;5055071;28;1040;-34
2022/09/17 11:09:44;;;;;;;;;;;;;;;26.44;nan;100723.59;5054847;28;1209;-34
2022/09/17 11:12:10;;;;;;;;;;;;;;;26.44;nan;100723.59;5054772;28;1918;-32
2022/09/17 11:14:37;;;;;;;;;;;;;;;26.45;nan;100724.41;5055091;28;1205;-35
2022/09/17 11:17:12;;;;;;;;;;;;;;;26.45;nan;100722.59;5054890;28;1113;-29
2022/09/17 11:19:59;;;;;;;;;;;;;;;26.44;nan;100725.41;5055267;28;1281;-33
2022/09/17 11:22:31;;;;;;;;;;;;;;;26.47;nan;100728.66;5057628;28;1322;-35
2022/09/17 11:25:17;;;;;;;;;;;;;;;26.47;nan;100723.31;5054657;28;1229;-33
2022/09/17 11:27:54;;;;;;;;;;;;;;;26.48;nan;100721.47;5054726;28;1022;-31
2022/09/17 11:30:22;;;;;;;;;;;;;;;26.49;nan;100724.03;5054571;28;1350;-31
2022/09/17 11:33:01;;;;;;;;;;;;;;;26.49;nan;100724.03;5054652;28;1914;-32
2022/09/17 11:35:32;;;;;;;;;;;;;;;26.47;nan;100720.66;5054464;28;1282;-32
2022/09/17 11:38:12;;;;;;;;;;;;;;;26.47;nan;100723.31;5055117;28;1545;-31
2022/09/17 11:40:58;;;;;;;;;;;;;;;26.47;nan;100717.97;5054904;28;1260;-35
2022/09/17 11:43:26;;;;;;;;;;;;;;;26.47;nan;100720.66;5055250;28;1168;-34
2022/09/17 11:45:56;;;;;;;;;;;;;;;26.48;nan;100727.66;5054595;28;1287;-35
2022/09/17 11:48:26;;;;;;;;;;;;;;;26.49;nan;100721.34;5053689;28;1556;-31
2022/09/17 11:50:56;;;;;;;;;;;;;;;26.50;nan;100719.53;5054416;28;1910;-32
2022/09/17 11:53:33;;;;;;;;;;;;;;;26.49;nan;100716.00;5055125;28;1139;-34
2022/09/17 11:56:08;;;;;;;;;;;;;;;26.50;nan;100723.06;5054363;28;1340;-31
2022/09/17 11:58:44;;;;;;;;;;;;;;;26.50;nan;100709.69;5054894;28;1191;-35
2022/09/17 12:01:30;;;;;;;;;;;;;;;26.49;nan;100710.66;5054295;28;1307;-33
2022/09/17 12:03:58;;;;;;;;;;;;;;;26.49;nan;100712.50;5054141;28;2131;-32
2022/09/17 12:06:34;;;;;;;;;;;;;;;26.50;nan;100703.50;5054389;28;1205;-33
2022/09/17 12:09:10;;;;;;;;;;;;;;;26.50;nan;100707.03;5054499;28;616;-33
2022/09/17 12:11:40;;;;;;;;;;;;;;;26.47;nan;100699.28;5053952;28;1914;-33
2022/09/17 12:14:14;;;;;;;;;;;;;;;26.46;nan;100697.59;5054405;28;750;-31
2022/09/17 12:16:44;;;;;;;;;;;;;;;26.46;nan;100700.25;5069001;28;1340;-32
2022/09/17 12:19:14;;;;;;;;;;;;;;;26.48;nan;100697.44;5054413;28;766;-34
2022/09/17 12:21:48;;;;;;;;;;;;;;;26.47;nan;100691.28;5053383;28;1191;-32
2022/09/17 12:24:15;;;;;;;;;;;;;;;26.48;nan;100692.09;5053888;28;742;-33
2022/09/17 12:26:51;;;;;;;;;;;;;;;26.47;nan;100690.44;5053971;28;1207;-31
2022/09/17 12:29:36;;;;;;;;;;;;;;;26.48;nan;100684.94;5054211;28;806;-34
2022/09/17 12:32:21;;;;;;;;;;;;;;;26.48;nan;100686.75;5054153;28;1985;-34
2022/09/17 12:34:48;;;;;;;;;;;;;;;26.48;nan;100679.59;5053715;28;1213;-32
2022/09/17 12:37:15;;;;;;;;;;;;;;;26.49;nan;100686.63;5053716;28;914;-32
2022/09/17 12:39:54;;;;;;;;;;;;;;;26.49;nan;100683.97;5053238;28;1182;-32
2022/09/17 12:42:33;;;;;;;;;;;;;;;26.48;nan;100681.41;5053328;28;1445;-32
2022/09/17 12:45:19;;;;;;;;;;;;;;;26.49;nan;100685.78;5053646;28;1217;-33
2022/09/17 12:47:58;;;;;;;;;;;;;;;26.51;nan;100679.31;5053801;28;1009;-32
2022/09/17 12:50:43;;;;;;;;;;;;;;;26.51;nan;100681.97;5053093;28;1274;-33
2022/09/17 12:53:28;;;;;;;;;;;;;;;26.51;nan;100684.66;5053109;28;1910;-30
2022/09/17 12:56:13;;;;;;;;;;;;;;;26.52;nan;100688.16;5052963;28;1252;-34
2022/09/17 12:58:43;;;;;;;;;;;;;;;26.51;nan;100689.16;5053402;28;1120;-33
2022/09/17 13:01:16;;;;;;;;;;;;;;;26.48;nan;100682.25;5053239;28;1268;-30
2022/09/17 13:03:49;;;;;;;;;;;;;;;26.50;nan;100692.81;5053490;28;966;-33
2022/09/17 13:06:36;;;;;;;;;;;;;;;26.50;nan;100693.66;5053569;28;1280;-34
2022/09/17 13:09:26;;;;;;;;;;;;;;;26.49;nan;100702.66;5053233;28;708;-35
2022/09/17 13:12:12;;;;;;;;;;;;;;;26.49;nan;100704.47;5052960;28;1910;-34
2022/09/17 13:14:57;;;;;;;;;;;;;;;26.49;nan;100699.97;5053190;28;1300;-34
2022/09/17 13:17:23;;;;;;;;;;;;;;;26.51;nan;100699.84;5053151;28;1015;-34
2022/09/17 13:20:04;;;;;;;;;;;;;;;26.50;nan;100693.66;5052698;28;1173;-35
2022/09/17 13:22:33;;;;;;;;;;;;;;;26.48;nan;100703.63;5052995;28;1047;-33
2022/09/17 13:25:02;;;;;;;;;;;;;;;26.49;nan;100696.47;5052961;28;1220;-33
2022/09/17 13:27:28;;;;;;;;;;;;;;;26.49;nan;100702.66;5068229;28;1042;-29